createdAt,value
2023-01-10T00:01:08.021Z,98568.59
2023-01-10T00:03:35.712Z,98571.16
2023-01-10T00:06:03.254Z,98571.19
2023-01-10T00:08:30.640Z,98568.44
2023-01-10T00:10:58.432Z,98571.06
2023-01-10T00:13:25.928Z,98571.00
2023-01-10T00:15:54.869Z,98564.34
2023-01-10T00:18:22.932Z,98556.03
2023-01-10T00:20:50.350Z,98557.78
2023-01-10T00:23:18.512Z,98555.00
2023-01-10T00:25:46.364Z,98553.22
2023-01-10T00:28:20.248Z,98547.19
2023-01-10T00:30:59.806Z,98548.09
2023-01-10T00:33:28.755Z,98544.69
2023-01-10T00:35:56.429Z,98542.09
2023-01-10T00:38:24.156Z,98536.78
2023-01-10T00:40:51.570Z,98545.22
2023-01-10T00:43:37.855Z,98543.31
2023-01-10T00:46:05.472Z,98543.44
2023-01-10T00:48:33.240Z,98546.13
2023-01-10T00:51:00.668Z,98544.41
2023-01-10T00:53:28.095Z,98547.25
2023-01-10T00:55:56.028Z,98540.53
2023-01-10T00:58:23.800Z,98541.44
2023-01-10T01:00:51.259Z,98548.31
2023-01-10T01:03:21.609Z,98544.78
2023-01-10T01:05:49.215Z,98540.91
2023-01-10T01:08:17.964Z,98538.75
2023-01-10T01:10:46.119Z,98544.75
2023-01-10T01:13:19.401Z,98542.72
2023-01-10T01:15:47.287Z,98538.97
2023-01-10T01:18:17.787Z,98554.94
2023-01-10T01:20:48.031Z,98552.69
2023-01-10T01:23:16.105Z,98544.94
2023-01-10T01:25:43.504Z,98542.41
2023-01-10T01:28:13.656Z,98547.41
2023-01-10T01:30:41.561Z,98552.50
2023-01-10T01:33:08.951Z,98547.66
2023-01-10T01:35:36.561Z,98548.91
2023-01-10T01:38:04.243Z,98548.91
2023-01-10T01:40:31.769Z,98559.22
2023-01-10T01:42:59.158Z,98547.88
2023-01-10T01:45:29.725Z,98555.28
2023-01-10T01:47:58.269Z,98550.66
2023-01-10T01:50:59.327Z,98544.53
2023-01-10T01:53:52.939Z,98542.69
2023-01-10T01:56:42.961Z,98552.31
2023-01-10T01:59:41.117Z,98556.84
2023-01-10T02:02:13.216Z,98557.53
2023-01-10T02:04:50.250Z,98563.69
2023-01-10T02:07:18.261Z,98572.56
2023-01-10T02:09:49.336Z,98588.47
2023-01-10T02:12:16.740Z,98568.22
2023-01-10T02:14:45.389Z,98568.87
2023-01-10T02:17:12.824Z,98576.47
2023-01-10T02:20:05.968Z,98573.28
2023-01-10T02:22:56.981Z,98578.28
2023-01-10T02:25:47.372Z,98577.50
2023-01-10T02:28:35.681Z,98567.50
2023-01-10T02:31:24.488Z,98570.94
2023-01-10T02:34:04.644Z,98571.84
2023-01-10T02:36:40.592Z,98567.75
2023-01-10T02:39:19.216Z,98569.84
2023-01-10T02:42:00.180Z,98571.53
2023-01-10T02:44:45.335Z,98574.28
2023-01-10T02:47:13.671Z,98577.50
2023-01-10T02:49:45.221Z,98578.50
2023-01-10T02:52:16.045Z,98567.78
2023-01-10T02:54:43.894Z,98561.81
2023-01-10T02:57:48.308Z,98573.88
2023-01-10T03:00:48.132Z,98568.03
2023-01-10T03:03:39.322Z,98572.12
2023-01-10T03:06:45.810Z,98583.03
2023-01-10T03:09:19.022Z,98579.88
2023-01-10T03:11:47.105Z,98597.84
2023-01-10T03:14:19.151Z,98593.19
2023-01-10T03:16:52.016Z,98591.75
2023-01-10T03:19:22.633Z,98588.94
2023-01-10T03:21:55.107Z,98586.00
2023-01-10T03:24:35.580Z,98588.47
2023-01-10T03:27:25.168Z,98592.75
2023-01-10T03:30:24.880Z,98591.25
2023-01-10T03:32:53.458Z,98603.50
2023-01-10T03:35:22.582Z,98604.81
2023-01-10T03:37:56.600Z,98599.91
2023-01-10T03:40:28.876Z,98607.31
2023-01-10T03:43:22.303Z,98611.34
2023-01-10T03:45:59.678Z,98611.59
2023-01-10T03:48:31.683Z,98610.00
2023-01-10T03:51:00.660Z,98604.94
2023-01-10T03:53:28.295Z,98598.09
2023-01-10T03:55:55.852Z,98607.47
2023-01-10T03:58:23.579Z,98612.66
2023-01-10T04:00:51.301Z,98622.75
2023-01-10T04:03:19.067Z,98626.22
2023-01-10T04:05:46.523Z,98629.25
2023-01-10T04:08:14.139Z,98622.75
2023-01-10T04:10:41.845Z,98627.59
2023-01-10T04:13:09.222Z,98631.41
2023-01-10T04:15:36.695Z,98629.28
2023-01-10T04:18:04.494Z,98632.06
2023-01-10T04:20:31.894Z,98621.44
2023-01-10T04:22:59.357Z,98619.66
2023-01-10T04:25:27.063Z,98610.75
2023-01-10T04:27:54.637Z,98601.38
2023-01-10T04:30:22.147Z,98602.94
2023-01-10T04:32:49.872Z,98601.28
2023-01-10T04:35:17.299Z,98608.19
2023-01-10T04:37:44.787Z,98601.81
2023-01-10T04:40:13.267Z,98618.25
2023-01-10T04:42:40.655Z,98615.28
2023-01-10T04:45:11.810Z,98621.16
2023-01-10T04:47:39.796Z,98630.34
2023-01-10T04:50:07.392Z,98641.66
2023-01-10T04:52:34.776Z,98642.13
2023-01-10T04:55:02.486Z,98650.50
2023-01-10T04:57:29.886Z,98651.09
2023-01-10T04:59:57.317Z,98666.84
2023-01-10T05:02:25.116Z,98660.63
2023-01-10T05:04:52.663Z,98665.72
2023-01-10T05:07:20.042Z,98673.13
2023-01-10T05:09:47.710Z,98675.97
2023-01-10T05:12:15.478Z,98685.06
2023-01-10T05:14:42.884Z,98689.06
2023-01-10T05:17:10.607Z,98696.63
2023-01-10T05:19:38.039Z,98703.97
2023-01-10T05:22:05.439Z,98714.41
2023-01-10T05:24:33.218Z,98714.69
2023-01-10T05:27:00.601Z,98707.25
2023-01-10T05:29:28.612Z,98706.44
2023-01-10T05:31:56.497Z,98711.25
2023-01-10T05:34:23.916Z,98709.28
2023-01-10T05:36:51.307Z,98705.72
2023-01-10T05:39:19.229Z,98704.25
2023-01-10T05:41:46.667Z,98699.31
2023-01-10T05:44:14.915Z,98701.91
2023-01-10T05:46:42.736Z,98712.59
2023-01-10T05:49:10.189Z,98710.06
2023-01-10T05:51:37.685Z,98716.03
2023-01-10T05:54:05.533Z,98717.75
2023-01-10T05:56:32.936Z,98716.00
2023-01-10T05:59:17.022Z,98728.03
2023-01-10T06:01:48.247Z,98726.41
2023-01-10T06:04:15.952Z,98732.84
2023-01-10T06:06:43.355Z,98740.19
2023-01-10T06:09:10.780Z,98752.59
2023-01-10T06:11:39.029Z,98749.16
2023-01-10T06:14:07.790Z,98755.16
2023-01-10T06:16:35.188Z,98755.84
2023-01-10T06:19:02.915Z,98759.37
2023-01-10T06:21:30.450Z,98769.69
2023-01-10T06:23:58.090Z,98777.72
2023-01-10T06:26:25.751Z,98773.16
2023-01-10T06:28:53.373Z,98779.88
2023-01-10T06:31:22.586Z,98793.62
2023-01-10T06:33:51.254Z,98793.12
2023-01-10T06:36:19.090Z,98798.28
2023-01-10T06:38:47.056Z,98795.25
2023-01-10T06:41:14.809Z,98806.03
2023-01-10T06:43:45.436Z,98795.22
2023-01-10T06:46:17.315Z,98781.56
2023-01-10T06:48:45.898Z,98787.97
2023-01-10T06:51:14.484Z,98786.09
2023-01-10T06:53:42.533Z,98798.59
2023-01-10T06:56:10.684Z,98808.88
2023-01-10T06:58:38.875Z,98815.06
2023-01-10T07:01:08.004Z,98823.38
2023-01-10T07:03:35.805Z,98821.25
2023-01-10T07:06:03.700Z,98837.03
2023-01-10T07:08:31.060Z,98837.22
2023-01-10T07:10:59.688Z,98854.16
2023-01-10T07:13:27.123Z,98859.41
2023-01-10T07:16:04.719Z,98857.22
2023-01-10T07:18:36.826Z,98866.09
2023-01-10T07:21:04.553Z,98882.06
2023-01-10T07:23:32.318Z,98877.00
2023-01-10T07:26:04.953Z,98891.53
2023-01-10T07:28:34.636Z,98895.84
2023-01-10T07:31:04.052Z,98891.06
2023-01-10T07:33:32.309Z,98904.97
2023-01-10T07:36:01.174Z,98894.47
2023-01-10T07:38:29.096Z,98905.75
2023-01-10T07:40:56.709Z,98909.59
2023-01-10T07:43:24.416Z,98921.91
2023-01-10T07:45:52.003Z,98914.44
2023-01-10T07:48:19.567Z,98921.88
2023-01-10T07:50:47.314Z,98935.06
2023-01-10T07:53:14.743Z,98942.53
2023-01-10T07:55:43.563Z,98947.75
2023-01-10T07:58:11.347Z,98956.00
2023-01-10T08:00:38.755Z,98955.50
2023-01-10T08:03:06.907Z,98967.22
2023-01-10T08:05:34.560Z,98962.06
2023-01-10T08:08:06.596Z,98965.75
2023-01-10T08:10:35.591Z,98976.81
2023-01-10T08:13:17.093Z,98975.38
2023-01-10T08:15:47.492Z,98987.47
2023-01-10T08:18:16.466Z,98992.69
2023-01-10T08:20:43.894Z,99002.84
2023-01-10T08:23:11.605Z,99009.56
2023-01-10T08:25:39.712Z,99019.13
2023-01-10T08:28:07.180Z,99028.75
2023-01-10T08:30:35.106Z,99045.44
2023-01-10T08:33:04.051Z,99039.69
2023-01-10T08:35:32.653Z,99045.53
2023-01-10T08:38:02.942Z,99040.56
2023-01-10T08:40:30.341Z,99055.97
2023-01-10T08:43:03.116Z,99062.19
2023-01-10T08:45:31.108Z,99056.09
2023-01-10T08:47:58.551Z,99065.38
2023-01-10T08:50:26.375Z,99059.22
2023-01-10T08:52:54.101Z,99070.34
2023-01-10T08:55:21.729Z,99074.75
2023-01-10T08:57:49.322Z,99071.50
2023-01-10T09:00:17.613Z,99078.00
2023-01-10T09:02:45.178Z,99080.56
2023-01-10T09:05:26.283Z,99098.22
2023-01-10T09:07:59.237Z,99096.28
2023-01-10T09:10:27.245Z,99113.75
2023-01-10T09:12:55.111Z,99120.00
2023-01-10T09:15:24.454Z,99117.34
2023-01-10T09:18:00.792Z,99130.38
2023-01-10T09:20:29.476Z,99128.53
2023-01-10T09:22:57.599Z,99121.06
2023-01-10T09:25:25.483Z,99131.63
2023-01-10T09:27:58.137Z,99132.94
2023-01-10T09:30:26.250Z,99135.66
2023-01-10T09:32:54.848Z,99140.44
2023-01-10T09:35:23.276Z,99155.91
2023-01-10T09:37:53.452Z,99164.53
2023-01-10T09:40:46.001Z,99161.91
2023-01-10T09:43:32.085Z,99167.66
2023-01-10T09:46:16.343Z,99188.53
2023-01-10T09:48:56.764Z,99192.81
2023-01-10T09:51:37.845Z,99195.78
2023-01-10T09:54:12.767Z,99194.56
2023-01-10T09:56:40.938Z,99196.16
2023-01-10T09:59:16.120Z,99199.13
2023-01-10T10:01:44.729Z,99217.25
2023-01-10T10:04:32.343Z,99220.41
2023-01-10T10:07:00.139Z,99228.16
2023-01-10T10:09:33.507Z,99223.94
2023-01-10T10:12:19.826Z,99223.25
2023-01-10T10:15:07.829Z,99222.06
2023-01-10T10:17:50.604Z,99221.28
2023-01-10T10:20:27.097Z,99220.56
2023-01-10T10:23:13.316Z,99224.72
2023-01-10T10:26:07.545Z,99225.06
2023-01-10T10:28:54.513Z,99230.59
2023-01-10T10:31:57.495Z,99231.37
2023-01-10T10:34:31.666Z,99225.72
2023-01-10T10:37:02.674Z,99235.78
2023-01-10T10:39:51.871Z,99234.72
2023-01-10T10:42:19.859Z,99245.53
2023-01-10T10:44:58.962Z,99251.28
2023-01-10T10:47:30.812Z,99255.69
2023-01-10T10:50:16.062Z,99266.63
2023-01-10T10:52:44.638Z,99265.22
2023-01-10T10:55:23.479Z,99268.28
2023-01-10T10:57:59.804Z,99269.16
2023-01-10T11:00:28.350Z,99280.72
2023-01-10T11:03:04.692Z,99285.16
2023-01-10T11:05:40.775Z,99290.06
2023-01-10T11:08:12.381Z,99293.16
2023-01-10T11:10:41.853Z,99298.81
2023-01-10T11:13:12.507Z,99298.03
2023-01-10T11:15:46.565Z,99304.53
2023-01-10T11:18:26.682Z,99296.88
2023-01-10T11:21:00.842Z,99291.94
2023-01-10T11:23:34.513Z,99311.75
2023-01-10T11:26:02.935Z,99319.78
2023-01-10T11:28:32.233Z,99330.13
2023-01-10T11:31:00.541Z,99323.22
2023-01-10T11:33:35.447Z,99332.28
2023-01-10T11:36:09.262Z,99339.44
2023-01-10T11:38:36.953Z,99354.41
2023-01-10T11:41:25.592Z,99352.63
2023-01-10T11:43:53.040Z,99345.97
2023-01-10T11:46:23.036Z,99348.34
2023-01-10T11:49:06.118Z,99351.19
2023-01-10T11:51:39.973Z,99354.19
2023-01-10T11:54:10.487Z,99353.31
2023-01-10T11:56:40.054Z,99366.81
2023-01-10T11:59:16.537Z,99361.88
2023-01-10T12:02:00.601Z,99358.06
2023-01-10T12:04:32.493Z,99368.94
2023-01-10T12:07:04.756Z,99372.75
2023-01-10T12:09:42.517Z,99360.16
2023-01-10T12:12:15.982Z,99370.75
2023-01-10T12:14:44.074Z,99383.28
2023-01-10T12:17:37.856Z,99386.91
2023-01-10T12:20:07.100Z,99384.78
2023-01-10T12:22:38.761Z,99385.94
2023-01-10T12:25:27.609Z,99396.91
2023-01-10T12:27:56.879Z,99405.84
2023-01-10T12:30:39.042Z,99407.88
2023-01-10T12:33:16.849Z,99418.97
2023-01-10T12:35:59.244Z,99420.72
2023-01-10T12:39:15.703Z,99421.00
2023-01-10T12:42:28.315Z,99436.06
2023-01-10T12:45:14.510Z,99412.88
2023-01-10T12:47:45.056Z,99442.38
2023-01-10T12:50:34.141Z,99462.31
2023-01-10T12:53:06.121Z,99465.09
2023-01-10T12:55:43.021Z,99446.13
2023-01-10T12:58:18.975Z,99459.66
2023-01-10T13:00:49.109Z,99457.75
2023-01-10T13:03:20.839Z,99457.53
2023-01-10T13:05:50.701Z,99449.34
2023-01-10T13:08:21.795Z,99451.97
2023-01-10T13:10:51.511Z,99462.06
2023-01-10T13:13:49.679Z,99465.75
2023-01-10T13:16:24.096Z,99461.66
2023-01-10T13:19:10.605Z,99466.44
2023-01-10T13:21:39.670Z,99474.50
2023-01-10T13:24:28.513Z,99474.94
2023-01-10T13:27:02.270Z,99484.78
2023-01-10T13:29:41.084Z,99494.84
2023-01-10T13:32:23.997Z,99494.78
2023-01-10T13:34:52.066Z,99499.69
2023-01-10T13:37:25.678Z,99511.75
2023-01-10T13:39:55.844Z,99514.66
2023-01-10T13:42:52.387Z,99520.78
2023-01-10T13:45:25.852Z,99518.84
2023-01-10T13:47:56.963Z,99527.87
2023-01-10T13:50:33.770Z,99543.09
2023-01-10T13:53:01.456Z,99547.25
2023-01-10T13:55:39.132Z,99551.09
2023-01-10T13:58:09.480Z,99542.94
2023-01-10T14:00:55.737Z,99552.13
2023-01-10T14:03:43.771Z,99551.28
2023-01-10T14:06:29.429Z,99560.53
2023-01-10T14:09:03.531Z,99553.84
2023-01-10T14:11:43.489Z,99557.41
2023-01-10T14:14:27.728Z,99563.25
2023-01-10T14:16:59.225Z,99576.44
2023-01-10T14:19:32.993Z,99575.81
2023-01-10T14:22:02.012Z,99572.50
2023-01-10T14:24:38.918Z,99578.56
2023-01-10T14:27:07.721Z,99588.87
2023-01-10T14:29:35.448Z,99582.72
2023-01-10T14:32:03.821Z,99599.16
2023-01-10T14:34:36.860Z,99606.84
2023-01-10T14:37:08.748Z,99611.53
2023-01-10T14:39:36.513Z,99621.81
2023-01-10T14:42:07.696Z,99624.59
2023-01-10T14:45:09.004Z,99633.81
2023-01-10T14:47:38.477Z,99633.88
2023-01-10T14:50:07.813Z,99643.41
2023-01-10T14:52:37.665Z,99646.38
2023-01-10T14:55:08.014Z,99647.44
2023-01-10T14:57:35.716Z,99651.13
2023-01-10T15:00:17.403Z,99648.88
2023-01-10T15:02:47.472Z,99646.25
2023-01-10T15:05:26.863Z,99653.44
2023-01-10T15:07:55.521Z,99658.09
2023-01-10T15:10:31.910Z,99666.78
2023-01-10T15:13:01.991Z,99670.84
2023-01-10T15:15:37.993Z,99667.16
2023-01-10T15:18:26.890Z,99664.03
2023-01-10T15:20:54.665Z,99673.75
2023-01-10T15:23:23.343Z,99677.81
2023-01-10T15:25:59.555Z,99680.09
2023-01-10T15:28:30.010Z,99688.25
2023-01-10T15:30:59.517Z,99693.06
2023-01-10T15:33:32.977Z,99704.13
2023-01-10T15:36:08.483Z,99718.00
2023-01-10T15:38:38.202Z,99714.13
2023-01-10T15:41:06.840Z,99721.41
2023-01-10T15:43:36.347Z,99713.44
2023-01-10T15:46:06.006Z,99721.63
2023-01-10T15:48:39.891Z,99727.78
2023-01-10T15:51:22.365Z,99731.31
2023-01-10T15:54:19.017Z,99733.28
2023-01-10T15:56:53.205Z,99741.00
2023-01-10T15:59:27.659Z,99735.41
2023-01-10T16:02:14.557Z,99739.78
2023-01-10T16:04:43.654Z,99743.09
2023-01-10T16:07:26.815Z,99747.78
2023-01-10T16:09:58.967Z,99735.88
2023-01-10T16:12:53.440Z,99753.69
2023-01-10T16:15:26.350Z,99754.84
2023-01-10T16:17:53.853Z,99757.63
2023-01-10T16:20:34.514Z,99763.31
2023-01-10T16:23:02.868Z,99757.25
2023-01-10T16:25:39.237Z,99759.41
2023-01-10T16:28:06.609Z,99773.31
2023-01-10T16:30:35.237Z,99773.63
2023-01-10T16:33:16.281Z,99775.16
2023-01-10T16:35:45.457Z,99767.94
2023-01-10T16:38:13.569Z,99774.19
2023-01-10T16:40:42.511Z,99776.59
2023-01-10T16:43:25.738Z,99785.00
2023-01-10T16:46:00.171Z,99771.56
2023-01-10T16:48:30.383Z,99780.56
2023-01-10T16:51:10.972Z,99798.13
2023-01-10T16:53:38.661Z,99804.34
2023-01-10T16:56:07.122Z,99799.69
2023-01-10T16:58:34.554Z,99825.66
2023-01-10T17:01:02.312Z,99828.34
2023-01-10T17:03:33.881Z,99821.84
2023-01-10T17:06:01.608Z,99819.47
2023-01-10T17:08:29.052Z,99827.22
2023-01-10T17:11:01.466Z,99839.00
2023-01-10T17:13:39.378Z,99830.81
2023-01-10T17:16:07.210Z,99837.16
2023-01-10T17:18:34.930Z,99843.84
2023-01-10T17:21:02.383Z,99845.72
2023-01-10T17:23:30.728Z,99846.09
2023-01-10T17:26:00.033Z,99854.31
2023-01-10T17:28:28.978Z,99844.66
2023-01-10T17:30:57.318Z,99855.75
2023-01-10T17:33:26.281Z,99865.19
2023-01-10T17:35:55.866Z,99870.47
2023-01-10T17:38:25.586Z,99868.06
2023-01-10T17:40:53.953Z,99874.19
2023-01-10T17:43:21.916Z,99880.69
2023-01-10T17:45:50.989Z,99888.28
2023-01-10T17:48:19.840Z,99890.56
2023-01-10T17:50:48.495Z,99881.06
2023-01-10T17:53:18.125Z,99874.13
2023-01-10T17:55:47.277Z,99885.69
2023-01-10T17:58:15.625Z,99883.97
2023-01-10T18:00:43.147Z,99886.81
2023-01-10T18:03:10.915Z,99878.44
2023-01-10T18:05:39.821Z,99899.91
2023-01-10T18:08:08.102Z,99893.56
2023-01-10T18:10:35.884Z,99902.50
2023-01-10T18:13:03.680Z,99881.72
2023-01-10T18:15:31.248Z,99894.72
2023-01-10T18:17:59.166Z,99902.41
2023-01-10T18:20:27.751Z,99907.50
2023-01-10T18:23:13.775Z,99903.78
2023-01-10T18:25:41.841Z,99912.47
2023-01-10T18:28:09.750Z,99899.72
2023-01-10T18:30:40.448Z,99903.63
2023-01-10T18:33:08.194Z,99914.75
2023-01-10T18:35:35.724Z,99914.22
2023-01-10T18:38:03.502Z,99912.16
2023-01-10T18:40:31.468Z,99910.34
2023-01-10T18:42:59.516Z,99927.22
2023-01-10T18:45:27.569Z,99931.59
2023-01-10T18:47:57.854Z,99918.09
2023-01-10T18:50:26.087Z,99928.97
2023-01-10T18:52:54.873Z,99933.66
2023-01-10T18:55:23.028Z,99920.03
2023-01-10T18:57:51.271Z,99929.69
2023-01-10T19:00:19.232Z,99933.22
2023-01-10T19:02:47.455Z,99932.50
2023-01-10T19:05:15.402Z,99927.50
2023-01-10T19:07:42.906Z,99934.13
2023-01-10T19:10:11.098Z,99932.94
2023-01-10T19:12:42.446Z,99938.75
2023-01-10T19:15:11.334Z,99935.41
2023-01-10T19:17:39.172Z,99936.84
2023-01-10T19:20:07.398Z,99937.69
2023-01-10T19:22:35.129Z,99940.37
2023-01-10T19:25:05.499Z,99940.25
2023-01-10T19:27:41.687Z,99926.09
2023-01-10T19:30:11.209Z,99948.41
2023-01-10T19:32:41.576Z,99941.31
2023-01-10T19:35:10.504Z,99949.78
2023-01-10T19:37:39.650Z,99948.59
2023-01-10T19:40:08.205Z,99952.12
2023-01-10T19:42:37.441Z,99966.38
2023-01-10T19:45:06.089Z,99967.72
2023-01-10T19:47:33.725Z,99962.81
2023-01-10T19:50:01.697Z,99962.47
2023-01-10T19:52:29.263Z,99967.22
2023-01-10T19:54:56.799Z,99963.56
2023-01-10T19:57:24.880Z,99970.84
2023-01-10T19:59:55.397Z,99973.00
2023-01-10T20:02:24.004Z,99976.34
2023-01-10T20:04:54.429Z,99976.91
2023-01-10T20:07:22.411Z,99981.94
2023-01-10T20:09:50.118Z,99985.63
2023-01-10T20:12:18.356Z,99991.34
2023-01-10T20:14:46.273Z,99987.59
2023-01-10T20:17:14.299Z,99988.31
2023-01-10T20:19:42.291Z,99994.19
2023-01-10T20:22:10.574Z,99994.19
2023-01-10T20:24:38.423Z,99987.25
2023-01-10T20:27:09.436Z,99987.81
2023-01-10T20:29:39.003Z,99993.41
2023-01-10T20:32:07.726Z,100000.72
2023-01-10T20:34:35.960Z,99998.84
2023-01-10T20:37:03.634Z,99994.72
2023-01-10T20:39:32.950Z,100005.88
2023-01-10T20:42:00.552Z,100017.66
2023-01-10T20:44:28.749Z,100008.03
2023-01-10T20:46:57.933Z,100011.31
2023-01-10T20:49:25.443Z,100014.59
2023-01-10T20:51:54.366Z,100029.25
2023-01-10T20:54:22.756Z,100029.34
2023-01-10T20:56:50.230Z,100022.31
2023-01-10T20:59:18.578Z,100037.84
2023-01-10T21:01:46.799Z,100040.09
2023-01-10T21:04:14.357Z,100031.28
2023-01-10T21:06:42.215Z,100021.41
2023-01-10T21:09:10.236Z,100025.00
2023-01-10T21:11:52.126Z,100022.97
2023-01-10T21:14:25.909Z,100029.84
2023-01-10T21:16:53.419Z,100021.75
2023-01-10T21:19:21.049Z,100022.34
2023-01-10T21:21:48.957Z,100018.00
2023-01-10T21:24:16.415Z,100023.94
2023-01-10T21:26:43.840Z,100025.16
2023-01-10T21:29:13.088Z,100020.88
2023-01-10T21:31:40.874Z,100029.72
2023-01-10T21:34:08.509Z,100026.06
2023-01-10T21:36:36.228Z,100027.78
2023-01-10T21:39:03.856Z,100029.31
2023-01-10T21:41:49.578Z,100027.66
2023-01-10T21:44:17.291Z,100034.25
2023-01-10T21:46:46.791Z,100026.84
2023-01-10T21:49:15.164Z,100028.97
2023-01-10T21:51:43.670Z,100023.87
2023-01-10T21:54:11.450Z,100025.66
2023-01-10T21:56:38.965Z,100027.00
2023-01-10T21:59:06.698Z,100031.41
2023-01-10T22:01:34.119Z,100031.25
2023-01-10T22:04:01.983Z,100034.22
2023-01-10T22:06:29.669Z,100031.38
2023-01-10T22:08:57.088Z,100029.06
2023-01-10T22:11:24.827Z,100028.34
2023-01-10T22:13:54.442Z,100018.44
2023-01-10T22:16:21.929Z,100016.78
2023-01-10T22:18:50.288Z,100026.34
2023-01-10T22:21:19.710Z,100022.66
2023-01-10T22:23:47.298Z,100025.31
2023-01-10T22:26:16.218Z,100032.44
2023-01-10T22:28:43.745Z,100033.00
2023-01-10T22:31:11.315Z,100019.75
2023-01-10T22:33:39.030Z,100025.00
2023-01-10T22:36:08.635Z,100024.03
2023-01-10T22:38:36.093Z,100015.09
2023-01-10T22:41:11.090Z,100023.34
2023-01-10T22:43:38.779Z,100029.44
2023-01-10T22:46:07.351Z,100034.00
2023-01-10T22:48:35.642Z,100034.50
2023-01-10T22:51:05.277Z,100047.56
2023-01-10T22:53:33.495Z,100039.03
2023-01-10T22:56:06.000Z,100033.13
2023-01-10T22:58:33.805Z,100034.94
2023-01-10T23:01:03.722Z,100034.94
2023-01-10T23:03:31.114Z,100028.34
2023-01-10T23:05:59.100Z,100035.09
2023-01-10T23:08:27.460Z,100039.03
2023-01-10T23:10:54.942Z,100049.03
2023-01-10T23:13:23.761Z,100048.28
2023-01-10T23:15:58.969Z,100045.59
2023-01-10T23:18:27.478Z,100038.88
2023-01-10T23:20:55.386Z,100044.91
2023-01-10T23:23:24.129Z,100039.75
2023-01-10T23:26:01.592Z,100057.00
2023-01-10T23:28:39.878Z,100049.06
2023-01-10T23:31:07.983Z,100042.62
2023-01-10T23:33:35.842Z,100050.44
2023-01-10T23:36:04.020Z,100051.44
2023-01-10T23:38:32.769Z,100049.66
2023-01-10T23:41:00.143Z,100048.34
2023-01-10T23:43:27.496Z,100042.88
2023-01-10T23:45:55.198Z,100043.50
2023-01-10T23:48:23.152Z,100034.41
2023-01-10T23:50:51.277Z,100034.72
2023-01-10T23:53:19.460Z,100038.16
2023-01-10T23:55:47.001Z,100033.87
2023-01-10T23:58:15.634Z,100034.59
